Time;durP1;ratioP1;P1;durP2;ratioP2;P2;SDS_P1;SDS_P2;PMS_P1;PMS_P2;Temp;Humidity;BMP_temperature;BMP_pressure;BME280_temperature;BME280_humidity;BME280_pressure;Samples;Min_cycle;Max_cycle;Signal;HPM_P1;HPM_P2
2023/04/30 00:01:31;;;;;;;23.67;17.10;;;;;;;5.20;100.00;102221.50;5095166;28;20099;-52
2023/04/30 00:03:56;;;;;;;23.38;17.35;;;;;;;5.16;100.00;102220.38;5094572;28;20472;-51
2023/04/30 00:06:22;;;;;;;24.98;18.08;;;;;;;5.11;100.00;102221.72;5094782;28;20048;-53
2023/04/30 00:08:48;;;;;;;25.65;18.92;;;;;;;5.08;100.00;102217.25;5095176;28;20047;-51
2023/04/30 00:11:13;;;;;;;28.38;20.23;;;;;;;5.06;100.00;102206.06;5094341;28;20115;-50
2023/04/30 00:13:39;;;;;;;24.83;19.48;;;;;;;5.08;100.00;102217.25;5094734;28;20411;-51
2023/04/30 00:16:04;;;;;;;25.83;18.73;;;;;;;5.04;100.00;102219.50;5094687;28;20024;-50
2023/04/30 00:18:29;;;;;;;26.58;19.08;;;;;;;5.02;100.00;102218.47;5094090;28;20035;-52
2023/04/30 00:20:55;;;;;;;23.67;18.90;;;;;;;5.20;100.00;102217.31;5094774;28;20034;-49
2023/04/30 00:23:20;;;;;;;26.00;19.33;;;;;;;5.24;100.00;102211.63;5094366;28;20020;-50
2023/04/30 00:25:45;;;;;;;29.23;19.92;;;;;;;5.26;100.00;102212.59;5094251;28;20023;-51
2023/04/30 00:28:10;;;;;;;28.35;19.75;;;;;;;5.28;100.00;102211.06;5094761;28;20033;-51
2023/04/30 00:30:36;;;;;;;25.55;18.95;;;;;;;5.36;100.00;102213.28;5094431;28;20364;-54
2023/04/30 00:33:01;;;;;;;25.00;19.42;;;;;;;5.15;100.00;102226.28;5094344;28;20024;-52
2023/04/30 00:35:26;;;;;;;22.73;17.33;;;;;;;5.10;100.00;102218.28;5094115;28;20028;-51
2023/04/30 00:37:51;;;;;;;25.17;17.80;;;;;;;4.98;100.00;102224.13;5094481;28;20020;-52
2023/04/30 00:40:17;;;;;;;24.48;18.92;;;;;;;5.03;100.00;102220.25;5093736;28;20039;-49
2023/04/30 00:42:42;;;;;;;25.05;18.98;;;;;;;4.99;100.00;102228.47;5094428;28;20430;-50
2023/04/30 00:45:08;;;;;;;24.10;19.83;;;;;;;5.01;100.00;102221.81;5094397;28;20028;-52
2023/04/30 00:47:33;;;;;;;27.60;19.58;;;;;;;4.92;100.00;102227.13;5093781;28;20016;-49
2023/04/30 00:49:59;;;;;;;25.88;19.25;;;;;;;4.91;100.00;102226.22;5094419;28;20054;-52
2023/04/30 00:52:25;;;;;;;28.50;20.42;;;;;;;5.00;100.00;102227.72;5093528;28;20157;-50
2023/04/30 00:54:52;;;;;;;27.63;21.25;;;;;;;4.97;100.00;102222.34;5094157;28;20020;-49
2023/04/30 00:57:19;;;;;;;31.02;22.30;;;;;;;5.03;100.00;102218.59;5093801;28;20089;-49
2023/04/30 00:59:45;;;;;;;30.45;22.40;;;;;;;5.06;100.00;102217.91;5093480;28;20034;-51
2023/04/30 01:02:11;;;;;;;27.63;21.25;;;;;;;5.02;100.00;102218.47;5094234;28;20028;-50
2023/04/30 01:04:37;;;;;;;27.73;20.80;;;;;;;4.92;100.00;102220.34;5093749;28;20483;-49
2023/04/30 01:07:03;;;;;;;25.80;19.05;;;;;;;4.76;100.00;102217.41;5093155;28;20048;-51
2023/04/30 01:09:29;;;;;;;29.48;20.25;;;;;;;4.83;100.00;102222.22;5093756;28;20028;-48
2023/04/30 01:12:04;;;;;;;23.83;19.30;;;;;;;4.76;100.00;102222.53;5093803;28;20353;-52
2023/04/30 01:14:44;;;;;;;26.73;19.23;;;;;;;4.76;100.00;102214.88;5092845;28;20119;-51
2023/04/30 01:17:36;;;;;;;27.25;18.95;;;;;;;4.65;100.00;102210.59;5093945;28;20043;-51
2023/04/30 01:20:03;;;;;;;27.88;20.42;;;;;;;4.58;100.00;102207.59;5093542;28;20020;-52
2023/04/30 01:22:37;;;;;;;26.85;20.33;;;;;;;4.64;100.00;102211.41;5093130;28;20103;-52
2023/04/30 01:25:21;;;;;;;31.50;21.42;;;;;;;4.71;100.00;102211.06;5093936;28;20065;-49
2023/04/30 01:28:02;;;;;;;29.10;20.90;;;;;;;4.74;100.00;102208.78;5092116;28;20032;-50
2023/04/30 01:30:30;;;;;;;28.27;20.52;;;;;;;4.67;100.00;102207.38;5093260;28;20379;-49
2023/04/30 01:32:55;;;;;;;26.13;20.45;;;;;;;4.57;100.00;102208.38;5093846;28;20020;-50
2023/04/30 01:35:34;;;;;;;23.38;19.80;;;;;;;4.59;100.00;102219.56;5092435;28;20035;-51
2023/04/30 01:38:08;;;;;;;28.88;20.42;;;;;;;4.41;100.00;102218.19;5093663;28;20035;-51
2023/04/30 01:40:50;;;;;;;27.13;19.95;;;;;;;4.39;100.00;102219.72;5093022;28;20024;-52
2023/04/30 01:43:37;;;;;;;24.15;19.02;;;;;;;4.28;100.00;102227.44;5092487;28;20426;-50
2023/04/30 01:46:18;;;;;;;26.58;20.33;;;;;;;4.25;100.00;102227.22;5093390;28;20052;-51
2023/04/30 01:49:05;;;;;;;28.55;21.40;;;;;;;4.28;100.00;102227.44;5092575;28;20032;-50
2023/04/30 01:51:35;;;;;;;26.37;21.60;;;;;;;4.32;100.00;102225.16;5092953;28;20081;-48
2023/04/30 01:54:08;;;;;;;31.00;22.88;;;;;;;4.42;100.00;102222.53;5093317;28;20020;-49
2023/04/30 01:56:42;;;;;;;29.73;22.92;;;;;;;4.32;100.00;102223.47;5092309;28;20024;-52
2023/04/30 01:59:09;;;;;;;33.03;24.17;;;;;;;4.46;100.00;102216.88;5093217;28;20028;-49
2023/04/30 02:01:34;;;;;;;33.40;25.08;;;;;;;4.43;100.00;102222.63;5092646;28;20115;-51
2023/04/30 02:04:00;;;;;;;33.47;24.10;;;;;;;4.45;100.00;102225.31;5092488;28;20103;-52
2023/04/30 02:06:29;;;;;;;32.78;23.58;;;;;;;4.39;100.00;102228.28;5092525;28;20143;-51
2023/04/30 02:08:58;;;;;;;33.20;24.67;;;;;;;4.51;100.00;102224.91;5092821;28;20859;-50
2023/04/30 02:11:23;;;;;;;31.40;23.48;;;;;;;4.35;100.00;102222.81;5092187;28;20051;-49
2023/04/30 02:13:49;;;;;;;28.38;22.98;;;;;;;4.29;100.00;102229.22;5093079;28;20067;-52
2023/04/30 02:16:15;;;;;;;34.20;25.60;;;;;;;4.52;100.00;102222.47;5092628;28;20016;-51
2023/04/30 02:18:40;;;;;;;35.63;26.55;;;;;;;4.54;100.00;102220.88;5092012;28;20475;-49
2023/04/30 02:21:05;;;;;;;34.80;25.15;;;;;;;4.55;100.00;102217.56;5093105;28;20032;-52
2023/04/30 02:23:30;;;;;;;33.35;25.42;;;;;;;4.56;100.00;102221.03;5092441;28;20108;-51
2023/04/30 02:25:56;;;;;;;33.67;26.20;;;;;;;4.53;100.00;102218.22;5092557;28;20023;-49
2023/04/30 02:28:21;;;;;;;33.67;24.63;;;;;;;4.59;100.00;102218.69;5092740;28;20028;-52
2023/04/30 02:30:46;;;;;;;34.50;25.92;;;;;;;4.70;100.00;102222.06;5092563;28;20095;-52
2023/04/30 02:33:12;;;;;;;30.42;24.67;;;;;;;4.51;100.00;102220.66;5092132;28;20040;-52
2023/04/30 02:35:40;;;;;;;31.00;24.90;;;;;;;4.66;100.00;102225.16;5092544;28;20505;-50
2023/04/30 02:38:05;;;;;;;33.05;25.58;;;;;;;4.74;100.00;102222.41;5092055;28;20028;-51
2023/04/30 02:40:30;;;;;;;35.97;25.75;;;;;;;4.68;100.00;102224.50;5096143;28;20089;-52
2023/04/30 02:42:56;;;;;;;33.83;25.77;;;;;;;4.73;100.00;102217.19;5096742;28;20039;-53
2023/04/30 02:45:21;;;;;;;34.92;24.38;;;;;;;4.60;100.00;102220.50;5095702;28;20517;-51
2023/04/30 02:47:47;;;;;;;34.78;26.02;;;;;;;4.65;100.00;102216.63;5096735;28;20023;-49
2023/04/30 02:50:13;;;;;;;33.22;23.77;;;;;;;4.61;100.00;102212.06;5096841;28;20020;-51
2023/04/30 02:52:38;;;;;;;29.25;21.88;;;;;;;4.41;100.00;102218.19;5095624;28;20117;-51
2023/04/30 02:55:04;;;;;;;31.15;23.35;;;;;;;4.50;100.00;102212.91;5096582;28;20032;-52
2023/04/30 02:57:29;;;;;;;27.35;21.08;;;;;;;4.18;100.00;102213.88;5096420;28;20430;-50
2023/04/30 02:59:54;;;;;;;28.70;20.70;;;;;;;4.08;100.00;102208.06;5095721;28;20024;-49
2023/04/30 03:02:22;;;;;;;29.15;22.02;;;;;;;4.07;100.00;102210.50;5096047;28;20024;-51
2023/04/30 03:04:47;;;;;;;32.92;24.25;;;;;;;4.21;100.00;102208.97;5096277;28;20024;-51
2023/04/30 03:07:13;;;;;;;37.17;27.42;;;;;;;4.28;100.00;102216.34;5095529;28;20043;-50
2023/04/30 03:09:38;;;;;;;31.70;25.23;;;;;;;4.24;100.00;102220.31;5096161;28;20103;-50
2023/04/30 03:12:04;;;;;;;34.15;27.05;;;;;;;4.29;100.00;102207.94;5096166;28;20088;-49
2023/04/30 03:14:29;;;;;;;31.55;25.50;;;;;;;4.16;100.00;102211.19;5095363;28;20043;-49
2023/04/30 03:16:55;;;;;;;27.38;22.33;;;;;;;3.98;100.00;102222.50;5096271;28;20020;-52
2023/04/30 03:19:23;;;;;;;30.15;22.08;;;;;;;3.85;100.00;102219.00;5095747;28;20476;-48
2023/04/30 03:21:49;;;;;;;29.67;23.52;;;;;;;3.93;100.00;102217.94;5095623;28;20036;-50
2023/04/30 03:24:14;;;;;;;35.72;26.52;;;;;;;4.00;100.00;102219.28;5096022;28;20020;-52
2023/04/30 03:26:40;;;;;;;36.70;26.23;;;;;;;3.94;100.00;102217.16;5095424;28;20058;-49
2023/04/30 03:29:05;;;;;;;34.95;25.40;;;;;;;3.83;100.00;102210.31;5095375;28;20546;-49
2023/04/30 03:31:30;;;;;;;32.67;24.85;;;;;;;3.86;100.00;102217.31;5095729;28;20399;-51
2023/04/30 03:33:56;;;;;;;34.30;27.00;;;;;;;3.84;100.00;102216.34;5096199;28;20024;-52
2023/04/30 03:36:21;;;;;;;34.00;25.95;;;;;;;3.73;100.00;102207.81;5095485;28;20131;-50
2023/04/30 03:38:46;;;;;;;32.72;26.42;;;;;;;3.73;100.00;102212.91;5096038;28;20035;-52
2023/04/30 03:41:11;;;;;;;38.33;28.75;;;;;;;3.81;100.00;102216.97;5095328;28;20023;-50
2023/04/30 03:43:37;;;;;;;34.85;27.35;;;;;;;3.76;100.00;102215.72;5094877;28;20073;-52
2023/04/30 03:46:02;;;;;;;36.30;27.60;;;;;;;3.67;100.00;102220.97;5095633;28;20044;-52
2023/04/30 03:48:27;;;;;;;33.35;26.58;;;;;;;3.59;100.00;102232.22;5094672;28;20024;-50
2023/04/30 03:50:53;;;;;;;32.78;26.42;;;;;;;3.58;100.00;102223.69;5094728;28;20078;-51
2023/04/30 03:53:18;;;;;;;34.15;27.05;;;;;;;3.53;100.00;102227.53;5095238;28;20467;-48
2023/04/30 03:55:44;;;;;;;38.75;28.48;;;;;;;3.57;100.00;102232.09;5094549;28;20020;-52
2023/04/30 03:58:09;;;;;;;41.03;30.38;;;;;;;3.67;100.00;102220.06;5095441;28;20034;-48
2023/04/30 04:00:34;;;;;;;41.75;29.85;;;;;;;3.58;100.00;102228.78;5094865;28;20024;-48
2023/04/30 04:03:00;;;;;;;36.88;29.15;;;;;;;3.56;100.00;102219.22;5094721;28;20028;-53
2023/04/30 04:05:25;;;;;;;39.10;29.65;;;;;;;3.45;100.00;102228.56;5094896;28;20072;-51
2023/04/30 04:07:50;;;;;;;39.83;30.58;;;;;;;3.53;100.00;102229.19;5095442;28;20054;-52
2023/04/30 04:10:16;;;;;;;36.33;28.20;;;;;;;3.46;100.00;102227.81;5094108;28;20024;-52
2023/04/30 04:12:41;;;;;;;44.90;32.67;;;;;;;3.66;100.00;102225.97;5095048;28;20056;-51
2023/04/30 04:15:07;;;;;;;40.70;31.15;;;;;;;3.58;100.00;102233.00;5094624;28;20028;-52
2023/04/30 04:17:32;;;;;;;41.70;31.08;;;;;;;3.63;100.00;102222.38;5094238;28;20028;-52
2023/04/30 04:19:58;;;;;;;44.95;32.90;;;;;;;3.69;100.00;102232.19;5095094;28;20038;-52
2023/04/30 04:22:23;;;;;;;43.30;31.20;;;;;;;3.66;100.00;102228.50;5094514;28;20532;-52
2023/04/30 04:24:50;;;;;;;40.30;31.35;;;;;;;3.61;100.00;102236.66;5094339;28;20475;-52
2023/04/30 04:27:15;;;;;;;41.78;31.73;;;;;;;3.62;100.00;102235.91;5094766;28;20016;-52
2023/04/30 04:29:41;;;;;;;47.25;33.15;;;;;;;3.69;100.00;102231.28;5094423;28;20360;-52
2023/04/30 04:32:06;;;;;;;46.45;34.03;;;;;;;3.74;100.00;102232.56;5094081;28;20459;-52
2023/04/30 04:34:32;;;;;;;44.75;34.30;;;;;;;3.73;100.00;102233.31;5094229;28;20036;-50
2023/04/30 04:36:57;;;;;;;41.90;32.75;;;;;;;3.71;100.00;102234.88;5094488;28;20019;-52
2023/04/30 04:39:23;;;;;;;48.50;34.17;;;;;;;3.76;100.00;102238.69;5093827;28;20482;-53
2023/04/30 04:41:48;;;;;;;43.28;30.92;;;;;;;3.68;100.00;102237.16;5094514;28;20503;-52
2023/04/30 04:44:13;;;;;;;44.28;32.17;;;;;;;3.69;100.00;102233.84;5094212;28;20051;-52
2023/04/30 04:46:41;;;;;;;39.05;31.20;;;;;;;3.76;100.00;102231.91;5093475;28;20078;-52
2023/04/30 04:49:06;;;;;;;44.08;32.80;;;;;;;3.77;100.00;102240.44;5094271;28;20484;-52
2023/04/30 04:51:32;;;;;;;41.90;31.85;;;;;;;3.76;100.00;102237.00;5093589;28;20098;-53
2023/04/30 04:53:57;;;;;;;43.00;33.13;;;;;;;3.77;100.00;102241.34;5094245;28;20016;-52
2023/04/30 04:56:23;;;;;;;49.42;35.25;;;;;;;3.89;100.00;102240.53;5094124;28;20353;-52
2023/04/30 04:58:48;;;;;;;48.63;35.97;;;;;;;3.85;100.00;102243.59;5093171;28;20089;-52
2023/04/30 05:01:14;;;;;;;44.15;34.22;;;;;;;3.90;100.00;102250.88;5094078;28;20020;-52
2023/04/30 05:03:39;;;;;;;48.10;35.72;;;;;;;4.00;100.00;102243.94;5093845;28;20024;-53
2023/04/30 05:06:05;;;;;;;49.42;35.90;;;;;;;4.04;100.00;102251.06;5093102;28;20068;-52
2023/04/30 05:08:30;;;;;;;46.45;33.97;;;;;;;4.02;100.00;102255.16;5093758;28;20051;-52
2023/04/30 05:10:56;;;;;;;40.22;32.00;;;;;;;4.03;100.00;102257.81;5094195;28;20408;-53
2023/04/30 05:13:21;;;;;;;45.10;35.50;;;;;;;4.04;100.00;102253.59;5092756;28;20460;-51
2023/04/30 05:15:50;;;;;;;45.50;32.33;;;;;;;4.03;100.00;102254.38;5093717;28;20551;-52
2023/04/30 05:18:16;;;;;;;49.22;36.70;;;;;;;4.14;100.00;102245.91;5093409;28;20371;-53
2023/04/30 05:20:41;;;;;;;51.63;38.03;;;;;;;4.18;100.00;102253.00;5093199;28;20543;-52
2023/04/30 05:23:07;;;;;;;48.42;38.08;;;;;;;4.28;100.00;102247.84;5093869;28;20024;-52
2023/04/30 05:25:32;;;;;;;55.65;41.30;;;;;;;4.41;100.00;102239.50;5093199;28;20028;-52
2023/04/30 05:27:57;;;;;;;62.28;44.28;;;;;;;4.50;100.00;102244.41;5092994;28;20031;-52
2023/04/30 05:30:22;;;;;;;60.70;44.70;;;;;;;4.58;100.00;102243.38;5093362;28;20024;-52
2023/04/30 05:32:50;;;;;;;60.22;45.78;;;;;;;4.69;100.00;102245.84;5093516;28;20384;-52
2023/04/30 05:35:16;;;;;;;;;;;;;;;4.71;100.00;102245.19;5093085;28;20031;-53
2023/04/30 05:37:41;;;;;;;55.25;43.22;;;;;;;4.84;100.00;102244.44;5093481;28;19912;-53
2023/04/30 05:40:07;;;;;;;60.72;46.55;;;;;;;4.92;100.00;102240.78;5093343;28;20028;-52
2023/04/30 05:42:33;;;;;;;60.75;46.47;;;;;;;5.02;100.00;102246.59;5092494;28;20027;-52
2023/04/30 05:44:58;;;;;;;62.25;47.17;;;;;;;5.09;100.00;102247.16;5093618;28;20047;-51
2023/04/30 05:47:23;;;;;;;57.63;46.25;;;;;;;5.20;100.00;102247.97;5092882;28;20391;-53
2023/04/30 05:49:49;;;;;;;60.53;46.55;;;;;;;5.25;100.00;102246.66;5092796;28;20019;-52
2023/04/30 05:52:16;;;;;;;58.53;44.33;;;;;;;5.37;100.00;102238.97;5093151;28;20055;-52
2023/04/30 05:54:41;;;;;;;56.35;43.25;;;;;;;5.45;100.00;102239.53;5092843;28;20480;-51
2023/04/30 05:57:06;;;;;;;55.72;42.03;;;;;;;5.60;100.00;102235.53;5092567;28;20024;-52
2023/04/30 05:59:32;;;;;;;50.88;42.38;;;;;;;5.68;100.00;102245.41;5092819;28;20020;-53
2023/04/30 06:01:57;;;;;;;50.15;40.03;;;;;;;5.74;100.00;102235.63;5092289;28;20482;-51
2023/04/30 06:04:22;;;;;;;50.10;39.58;;;;;;;5.85;100.00;102236.38;5092851;28;20028;-53
2023/04/30 06:06:47;;;;;;;45.25;38.45;;;;;;;5.97;100.00;102231.28;5092878;28;20082;-52
2023/04/30 06:09:13;;;;;;;47.15;37.63;;;;;;;6.01;100.00;102239.28;5092270;28;20036;-53
2023/04/30 06:11:38;;;;;;;43.83;35.80;;;;;;;6.13;100.00;102241.81;5092639;28;20024;-52
2023/04/30 06:14:03;;;;;;;43.72;35.42;;;;;;;6.24;100.00;102238.34;5092275;28;20170;-52
2023/04/30 06:16:29;;;;;;;40.25;31.83;;;;;;;6.32;100.00;102235.44;5091988;28;20039;-52
2023/04/30 06:18:55;;;;;;;41.17;31.58;;;;;;;6.46;100.00;102237.25;5092839;28;20468;-48
2023/04/30 06:21:20;;;;;;;38.60;31.90;;;;;;;6.52;100.00;102249.59;5092380;28;20028;-53
2023/04/30 06:23:45;;;;;;;36.70;29.13;;;;;;;6.58;100.00;102240.69;5092293;28;20023;-52
2023/04/30 06:26:13;;;;;;;34.20;25.38;;;;;;;6.68;100.00;102243.88;5092915;28;20426;-51
2023/04/30 06:28:39;;;;;;;31.80;24.80;;;;;;;6.77;100.00;102239.34;5092200;28;20032;-53
2023/04/30 06:31:04;;;;;;;29.25;24.35;;;;;;;6.89;100.00;102242.75;5092470;28;20024;-52
2023/04/30 06:33:30;;;;;;;31.30;25.42;;;;;;;6.98;100.00;102237.34;5092665;28;20423;-53
2023/04/30 06:35:55;;;;;;;31.30;25.67;;;;;;;7.01;100.00;102237.56;5092517;28;20031;-52
2023/04/30 06:38:20;;;;;;;35.83;27.35;;;;;;;7.09;100.00;102241.50;5091919;28;20504;-50
2023/04/30 06:40:46;;;;;;;30.75;25.38;;;;;;;7.20;100.00;102238.75;5092588;28;20020;-52
2023/04/30 06:43:11;;;;;;;27.08;22.85;;;;;;;7.26;100.00;102241.72;5092305;28;20043;-51
2023/04/30 06:45:37;;;;;;;31.50;23.45;;;;;;;7.36;100.00;102238.97;5091916;28;20111;-52
2023/04/30 06:48:02;;;;;;;30.85;23.25;;;;;;;7.49;100.00;102245.78;5092728;28;20036;-52
2023/04/30 06:50:27;;;;;;;27.13;21.80;;;;;;;7.65;100.00;102249.34;5092170;28;20033;-52
2023/04/30 06:52:53;;;;;;;26.48;21.15;;;;;;;7.80;100.00;102242.63;5092048;28;20029;-52
2023/04/30 06:55:18;;;;;;;25.80;20.20;;;;;;;7.77;100.00;102247.53;5091155;28;20111;-52
2023/04/30 06:57:43;;;;;;;25.80;22.17;;;;;;;7.85;100.00;102248.94;5092344;28;20054;-52
2023/04/30 07:00:09;;;;;;;29.80;22.15;;;;;;;7.86;100.00;102245.59;5092107;28;20036;-53
2023/04/30 07:02:35;;;;;;;27.98;23.15;;;;;;;7.98;100.00;102253.16;5092344;28;20024;-52
2023/04/30 07:05:01;;;;;;;29.77;23.30;;;;;;;8.04;100.00;102251.00;5092373;28;20027;-53
2023/04/30 07:07:26;;;;;;;29.15;22.85;;;;;;;8.17;100.00;102247.50;5091344;28;20052;-52
2023/04/30 07:09:52;;;;;;;29.60;22.20;;;;;;;8.21;100.00;102249.47;5092421;28;20416;-52
2023/04/30 07:12:18;;;;;;;26.63;22.17;;;;;;;8.30;100.00;102251.72;5091246;28;20032;-52
2023/04/30 07:14:43;;;;;;;25.00;19.73;;;;;;;8.41;100.00;102254.94;5092447;28;20165;-52
2023/04/30 07:17:09;;;;;;;28.27;20.48;;;;;;;8.53;100.00;102253.16;5092614;28;20043;-53
2023/04/30 07:19:34;;;;;;;27.38;21.42;;;;;;;8.62;100.00;102251.91;5091411;28;20793;-52
2023/04/30 07:21:59;;;;;;;28.95;20.45;;;;;;;8.72;100.00;102251.69;5092548;28;20103;-51
2023/04/30 07:24:25;;;;;;;25.67;19.55;;;;;;;8.97;100.00;102245.41;5091808;28;20074;-51
2023/04/30 07:26:50;;;;;;;24.50;19.77;;;;;;;9.06;100.00;102245.94;5093965;28;20107;-52
2023/04/30 07:29:17;;;;;;;26.95;20.42;;;;;;;9.14;100.00;102246.38;5095809;28;20094;-53
2023/04/30 07:31:42;;;;;;;27.10;19.85;;;;;;;9.26;100.00;102239.41;5095825;28;20024;-52
2023/04/30 07:34:07;;;;;;;28.10;18.90;;;;;;;9.30;100.00;102237.88;5095285;28;20478;-52
2023/04/30 07:36:33;;;;;;;25.05;19.25;;;;;;;9.53;100.00;102239.19;5095757;28;20478;-52
2023/04/30 07:38:58;;;;;;;23.92;18.67;;;;;;;9.59;100.00;102236.06;5095473;28;20538;-52
2023/04/30 07:41:24;;;;;;;24.65;18.70;;;;;;;9.73;100.00;102235.13;5094894;28;20016;-53
2023/04/30 07:43:50;;;;;;;22.30;17.83;;;;;;;9.91;100.00;102242.13;5095868;28;20032;-52
2023/04/30 07:46:15;;;;;;;23.13;18.60;;;;;;;9.97;100.00;102239.88;5095413;28;20471;-52
2023/04/30 07:48:40;;;;;;;26.50;19.63;;;;;;;10.05;100.00;102243.75;5095169;28;20502;-52
2023/04/30 07:51:05;;;;;;;24.77;17.25;;;;;;;10.18;100.00;102237.56;5095673;28;20026;-52
2023/04/30 07:53:31;;;;;;;22.25;16.60;;;;;;;10.29;100.00;102251.00;5094926;28;20077;-52
2023/04/30 07:55:57;;;;;;;23.85;17.70;;;;;;;10.25;100.00;102242.25;5094749;28;20077;-52
2023/04/30 07:58:22;;;;;;;24.40;18.25;;;;;;;10.39;100.00;102243.00;5095338;28;20028;-53
2023/04/30 08:00:47;;;;;;;24.42;17.85;;;;;;;10.47;100.00;102241.72;5095222;28;20024;-52
2023/04/30 08:03:13;;;;;;;19.50;17.13;;;;;;;10.65;100.00;102240.91;5094746;28;20032;-51
2023/04/30 08:05:38;;;;;;;22.15;18.27;;;;;;;10.80;100.00;102245.97;5094865;28;20040;-53
2023/04/30 08:08:04;;;;;;;22.88;17.55;;;;;;;10.93;100.00;102247.47;5095047;28;20070;-52
2023/04/30 08:10:29;;;;;;;22.90;16.85;;;;;;;11.01;100.00;102247.06;5094240;28;20020;-52
2023/04/30 08:12:54;;;;;;;22.05;16.52;;;;;;;11.11;100.00;102255.25;5095293;28;20047;-52
2023/04/30 08:15:22;;;;;;;25.60;16.88;;;;;;;11.19;100.00;102256.50;5094602;28;20387;-53
2023/04/30 08:17:49;;;;;;;19.50;16.35;;;;;;;11.29;100.00;102265.59;5094552;28;20111;-52
2023/04/30 08:20:14;;;;;;;19.65;15.88;;;;;;;11.35;99.88;102264.22;5095063;28;20023;-52
2023/04/30 08:22:40;;;;;;;19.08;15.77;;;;;;;11.41;99.03;102266.19;5093789;28;20114;-53
2023/04/30 08:25:05;;;;;;;19.83;15.55;;;;;;;11.41;96.76;102258.44;5094825;28;20029;-52
2023/04/30 08:27:31;;;;;;;19.75;16.17;;;;;;;11.64;100.00;102256.09;5094496;28;20111;-53
2023/04/30 08:29:56;;;;;;;21.40;17.58;;;;;;;11.94;100.00;102250.63;5094345;28;20028;-51
2023/04/30 08:32:21;;;;;;;18.90;15.65;;;;;;;11.93;98.27;102259.16;5094569;28;20081;-53
2023/04/30 08:34:47;;;;;;;18.33;14.65;;;;;;;12.06;95.50;102246.06;5094475;28;20056;-52
2023/04/30 08:37:12;;;;;;;18.40;14.52;;;;;;;12.18;94.78;102246.59;5093654;28;20405;-52
2023/04/30 08:39:37;;;;;;;24.67;15.88;;;;;;;12.33;96.08;102250.69;5094196;28;20031;-52
2023/04/30 08:42:07;;;;;;;15.05;13.45;;;;;;;12.42;94.25;102252.81;5094541;28;20051;-53
2023/04/30 08:44:35;;;;;;;16.90;13.07;;;;;;;12.40;91.96;102257.91;5093819;28;20016;-51
2023/04/30 08:47:00;;;;;;;16.83;13.70;;;;;;;12.51;90.61;102251.53;5094498;28;20028;-52
2023/04/30 08:49:27;;;;;;;17.48;14.02;;;;;;;12.65;91.78;102253.81;5093912;28;20476;-52
2023/04/30 08:51:52;;;;;;;19.10;13.43;;;;;;;12.87;92.81;102241.81;5093753;28;20024;-51
2023/04/30 08:54:18;;;;;;;15.90;13.15;;;;;;;12.89;90.35;102254.00;5093824;28;20024;-51
2023/04/30 08:56:46;;;;;;;17.02;14.07;;;;;;;13.07;90.79;102253.91;5094213;28;20423;-52
2023/04/30 08:59:12;;;;;;;17.60;12.90;;;;;;;13.16;90.15;102243.91;5093878;28;20059;-52
2023/04/30 09:01:38;;;;;;;15.80;13.23;;;;;;;13.15;88.70;102246.44;5093895;28;20058;-53
2023/04/30 09:04:04;;;;;;;15.40;13.15;;;;;;;13.26;89.92;102233.94;5094221;28;20471;-52
2023/04/30 09:06:30;;;;;;;14.60;12.23;;;;;;;13.43;89.21;102242.44;5092869;28;20075;-52
2023/04/30 09:08:56;;;;;;;15.57;12.80;;;;;;;13.42;86.73;102243.25;5093925;28;20024;-52
2023/04/30 09:11:29;;;;;;;16.83;13.05;;;;;;;13.56;87.47;102244.69;5093607;28;20027;-53
2023/04/30 09:14:00;;;;;;;16.88;12.93;;;;;;;13.65;85.74;102245.06;5093572;28;20016;-53
2023/04/30 09:16:28;;;;;;;14.95;11.93;;;;;;;13.58;82.12;102243.06;5093649;28;20024;-53
2023/04/30 09:18:55;;;;;;;16.13;12.55;;;;;;;13.76;84.96;102239.41;5093026;28;20103;-53
2023/04/30 09:21:34;;;;;;;14.20;11.73;;;;;;;13.94;82.20;102244.41;5093342;28;20024;-52
2023/04/30 09:24:01;;;;;;;15.23;12.98;;;;;;;13.94;79.35;102244.41;5093580;28;20475;-52
2023/04/30 09:26:31;;;;;;;16.30;12.10;;;;;;;13.99;78.15;102241.19;5092888;28;20104;-52
2023/04/30 09:28:58;;;;;;;13.90;10.55;;;;;;;14.29;80.42;102235.38;5093801;28;20115;-53
2023/04/30 09:31:24;;;;;;;12.55;10.98;;;;;;;14.39;78.19;102231.38;5093142;28;20060;-50
2023/04/30 09:33:50;;;;;;;13.52;10.75;;;;;;;14.44;77.40;102237.63;5093049;28;20028;-51
2023/04/30 09:36:16;;;;;;;10.88;8.73;;;;;;;14.70;73.55;102229.91;5092973;28;20023;-51
2023/04/30 09:38:41;;;;;;;15.45;11.52;;;;;;;14.89;75.16;102236.63;5093459;28;20110;-52
2023/04/30 09:41:20;;;;;;;15.43;12.55;;;;;;;15.31;76.15;102235.38;5092987;28;20012;-52
2023/04/30 09:43:45;;;;;;;16.13;12.02;;;;;;;15.77;75.03;102218.63;5093459;28;20106;-52
2023/04/30 09:46:11;;;;;;;11.20;10.00;;;;;;;16.07;71.14;102230.81;5093071;28;20055;-52
2023/04/30 09:48:40;;;;;;;12.38;9.27;;;;;;;16.28;67.67;102227.06;5091634;28;20080;-52
2023/04/30 09:51:06;;;;;;;14.57;10.65;;;;;;;16.63;68.30;102219.34;5093449;28;20077;-52
2023/04/30 09:53:32;;;;;;;12.18;9.55;;;;;;;17.14;63.72;102217.19;5092894;28;20024;-52
2023/04/30 09:56:01;;;;;;;11.60;9.07;;;;;;;17.18;62.74;102224.22;5092684;28;20033;-52
2023/04/30 09:58:27;;;;;;;13.73;11.10;;;;;;;17.39;62.49;102218.63;5092914;28;20024;-52
2023/04/30 10:00:55;;;;;;;13.50;10.23;;;;;;;17.84;60.30;102222.25;5092861;28;20169;-52
2023/04/30 10:03:21;;;;;;;16.90;10.65;;;;;;;18.53;57.83;102214.97;5092182;28;20380;-52
2023/04/30 10:05:47;;;;;;;13.23;9.73;;;;;;;19.20;55.72;102217.00;5092845;28;20032;-52
2023/04/30 10:08:35;;;;;;;13.35;9.82;;;;;;;19.53;52.21;102218.34;5092390;28;20039;-52
2023/04/30 10:11:05;;;;;;;11.88;9.27;;;;;;;20.27;52.01;102228.91;5093083;28;20102;-52
2023/04/30 10:13:35;;;;;;;10.65;9.15;;;;;;;21.26;47.89;102209.75;5092309;28;20065;-52
2023/04/30 10:16:10;;;;;;;11.77;8.65;;;;;;;21.52;47.52;102207.31;5092499;28;20028;-51
2023/04/30 10:18:42;;;;;;;9.15;6.47;;;;;;;22.11;44.27;102210.22;5092800;28;20068;-53
2023/04/30 10:21:12;;;;;;;9.90;7.68;;;;;;;21.40;43.51;102207.22;5092709;28;20061;-48
2023/04/30 10:23:38;;;;;;;9.23;7.80;;;;;;;22.01;42.92;102205.81;5092091;28;20031;-51
2023/04/30 10:26:04;;;;;;;7.80;6.97;;;;;;;22.32;40.03;102201.53;5092712;28;20024;-51
2023/04/30 10:28:31;;;;;;;10.02;7.88;;;;;;;22.38;42.14;102200.69;5092422;28;20150;-52
2023/04/30 10:30:57;;;;;;;8.40;6.82;;;;;;;23.24;41.00;102204.22;5092282;28;20055;-53
2023/04/30 10:33:41;;;;;;;10.25;7.57;;;;;;;23.58;41.89;102194.50;5092451;28;20485;-52
2023/04/30 10:36:11;;;;;;;8.60;6.40;;;;;;;23.50;39.44;102191.91;5092410;28;20483;-52
2023/04/30 10:38:37;;;;;;;7.53;6.35;;;;;;;24.11;37.55;102194.31;5092514;28;20407;-52
2023/04/30 10:41:05;;;;;;;9.30;6.22;;;;;;;23.44;37.87;102193.69;5092652;28;20020;-53
2023/04/30 10:43:32;;;;;;;6.85;4.65;;;;;;;24.28;36.20;102183.69;5091903;28;20039;-52
2023/04/30 10:45:57;;;;;;;8.93;5.22;;;;;;;23.80;36.08;102186.53;5092726;28;20027;-52
2023/04/30 10:48:24;;;;;;;7.22;5.20;;;;;;;23.13;35.77;102184.06;5092014;28;20099;-53
2023/04/30 10:50:59;;;;;;;8.93;4.90;;;;;;;23.24;38.27;102184.09;5092243;28;20024;-52
2023/04/30 10:53:27;;;;;;;7.15;5.65;;;;;;;23.18;38.42;102176.19;5092244;28;20024;-52
2023/04/30 10:55:57;;;;;;;6.57;5.03;;;;;;;24.06;35.35;102180.31;5092496;28;20028;-51
2023/04/30 10:58:23;;;;;;;7.20;5.10;;;;;;;23.48;36.08;102166.47;5091744;28;20028;-52
2023/04/30 11:01:10;;;;;;;8.70;4.93;;;;;;;24.49;36.41;102172.09;5094904;28;20127;-53
2023/04/30 11:03:36;;;;;;;;;;;;;;;25.02;39.24;102161.13;5096299;28;20277;-54
2023/04/30 11:06:17;;;;;;;6.40;5.10;;;;;;;25.09;34.79;102154.91;5095695;28;19916;-53
2023/04/30 11:08:44;;;;;;;6.95;4.85;;;;;;;25.57;33.50;102152.63;5096244;28;20464;-52
2023/04/30 11:11:10;;;;;;;6.55;5.10;;;;;;;24.75;33.35;102153.47;5096199;28;20074;-51